ENSR

Sørkjosen Airport

Airport
ICAO code
ENSR
IATA Code
SOJ
Summary
ICAO Region
EUR
ICAO Territory
Location

Sørkjosen, Nordreisa, Troms,

Serving
Sørkjosen
Coordinates
69° 47' 11" N , 20° 57' 35" E
KCC
Airport CFIT
Altimeter Temperature Error Correction
Airport GND
Aircraft Ground De/Anti Icing
Airport WX
Low Level Turbulence
Metar
Observation
ENSR 271950Z AUTO 35005KT 330V060 9999 SCT055/// BKN068/// 04/01 Q0990 RMK WIND RWY32 VRB03KT WIND 1118FT 23010KT
Station
Sorkjosen
Date/Time
2023-01-27 19:50:00
Wind direction
350°
Wind speed
05 kts
Lowest cloud amount
scattered clouds
Temperature
4°C
Dew point
1°C
Humidity
80%
QNH
990 hPa
Weather condition
n/a

Description

Airport in Sørkjosen in the municipality of Nordreisa, Troms in Northern Norway.

Climatology

Borderline Subpolar Oceanic/Continental subarctic climate (because of winter temperatures) (Köppen climate classification Cfc/Dfc) - uniform precipitation distribution, temperatures are moderated by the proximity of the ocean and warm currents - cool summers and comparatively mild winters.

Heavy snowfalls in winter.

Runways

Designator Length Width Surface Rops
15/33 919 30 ASP No/No

Airport map

Aerial View

SKYbrary Partners:

Safety knowledge contributed by: